sensor_id;sensor_type;location;lat;lon;timestamp;P1;durP1;ratioP1;P2;durP2;ratioP2
63567;SDS011;49715;42.386;20.434;2022-08-19T00:01:54;14.85;;;7.03;;
63567;SDS011;49715;42.386;20.434;2022-08-19T00:04:31;14.32;;;7.60;;
63567;SDS011;49715;42.386;20.434;2022-08-19T00:07:24;14.15;;;7.00;;
63567;SDS011;49715;42.386;20.434;2022-08-19T00:09:52;17.60;;;7.15;;
63567;SDS011;49715;42.386;20.434;2022-08-19T00:12:19;20.02;;;9.13;;
63567;SDS011;49715;42.386;20.434;2022-08-19T00:14:46;18.23;;;8.75;;
63567;SDS011;49715;42.386;20.434;2022-08-19T00:17:12;21.88;;;9.48;;
63567;SDS011;49715;42.386;20.434;2022-08-19T00:19:39;22.30;;;8.93;;
63567;SDS011;49715;42.386;20.434;2022-08-19T00:22:06;19.70;;;9.55;;
63567;SDS011;49715;42.386;20.434;2022-08-19T00:24:34;27.90;;;9.45;;
63567;SDS011;49715;42.386;20.434;2022-08-19T00:27:04;21.83;;;9.52;;
63567;SDS011;49715;42.386;20.434;2022-08-19T00:29:31;22.38;;;9.20;;
63567;SDS011;49715;42.386;20.434;2022-08-19T00:31:57;31.48;;;10.15;;
63567;SDS011;49715;42.386;20.434;2022-08-19T00:34:27;22.70;;;9.73;;
63567;SDS011;49715;42.386;20.434;2022-08-19T00:36:54;22.35;;;9.15;;
63567;SDS011;49715;42.386;20.434;2022-08-19T00:39:23;31.00;;;9.50;;
63567;SDS011;49715;42.386;20.434;2022-08-19T00:44:18;33.58;;;9.10;;
63567;SDS011;49715;42.386;20.434;2022-08-19T00:46:50;23.33;;;9.07;;
63567;SDS011;49715;42.386;20.434;2022-08-19T00:49:23;19.52;;;8.50;;
63567;SDS011;49715;42.386;20.434;2022-08-19T00:51:57;23.90;;;9.02;;
63567;SDS011;49715;42.386;20.434;2022-08-19T00:54:30;23.88;;;8.60;;
63567;SDS011;49715;42.386;20.434;2022-08-19T00:56:58;25.60;;;8.77;;
63567;SDS011;49715;42.386;20.434;2022-08-19T00:59:27;27.80;;;9.68;;
63567;SDS011;49715;42.386;20.434;2022-08-19T01:01:54;18.80;;;8.43;;
63567;SDS011;49715;42.386;20.434;2022-08-19T01:04:21;23.58;;;9.63;;
63567;SDS011;49715;42.386;20.434;2022-08-19T01:06:47;17.33;;;7.80;;
63567;SDS011;49715;42.386;20.434;2022-08-19T01:09:14;22.50;;;7.65;;
63567;SDS011;49715;42.386;20.434;2022-08-19T01:11:41;12.45;;;5.97;;
63567;SDS011;49715;42.386;20.434;2022-08-19T01:14:11;16.33;;;6.53;;
63567;SDS011;49715;42.386;20.434;2022-08-19T01:16:44;20.60;;;6.78;;
63567;SDS011;49715;42.386;20.434;2022-08-19T01:19:15;14.23;;;6.30;;
63567;SDS011;49715;42.386;20.434;2022-08-19T01:21:54;16.95;;;6.28;;
63567;SDS011;49715;42.386;20.434;2022-08-19T01:24:26;19.25;;;7.32;;
63567;SDS011;49715;42.386;20.434;2022-08-19T01:26:53;16.92;;;6.78;;
63567;SDS011;49715;42.386;20.434;2022-08-19T01:29:21;16.80;;;7.38;;
63567;SDS011;49715;42.386;20.434;2022-08-19T01:31:47;16.40;;;7.30;;
63567;SDS011;49715;42.386;20.434;2022-08-19T01:34:16;19.88;;;7.75;;
63567;SDS011;49715;42.386;20.434;2022-08-19T01:36:43;16.75;;;7.15;;
63567;SDS011;49715;42.386;20.434;2022-08-19T01:39:21;16.48;;;7.57;;
63567;SDS011;49715;42.386;20.434;2022-08-19T01:41:49;18.95;;;7.70;;
63567;SDS011;49715;42.386;20.434;2022-08-19T01:46:47;21.65;;;8.60;;
63567;SDS011;49715;42.386;20.434;2022-08-19T01:49:15;16.83;;;8.02;;
63567;SDS011;49715;42.386;20.434;2022-08-19T01:51:44;15.00;;;7.65;;
63567;SDS011;49715;42.386;20.434;2022-08-19T01:54:12;13.68;;;7.20;;
63567;SDS011;49715;42.386;20.434;2022-08-19T01:56:42;17.02;;;7.30;;
63567;SDS011;49715;42.386;20.434;2022-08-19T01:59:14;20.25;;;7.30;;
63567;SDS011;49715;42.386;20.434;2022-08-19T02:01:43;14.82;;;6.43;;
63567;SDS011;49715;42.386;20.434;2022-08-19T02:04:09;16.63;;;6.80;;
63567;SDS011;49715;42.386;20.434;2022-08-19T02:06:37;12.82;;;6.32;;
63567;SDS011;49715;42.386;20.434;2022-08-19T02:11:32;11.65;;;6.10;;
63567;SDS011;49715;42.386;20.434;2022-08-19T02:14:00;16.60;;;6.72;;
63567;SDS011;49715;42.386;20.434;2022-08-19T02:16:28;17.88;;;7.68;;
63567;SDS011;49715;42.386;20.434;2022-08-19T02:18:56;22.63;;;7.40;;
63567;SDS011;49715;42.386;20.434;2022-08-19T02:21:23;18.55;;;8.00;;
63567;SDS011;49715;42.386;20.434;2022-08-19T02:23:50;13.35;;;7.65;;
63567;SDS011;49715;42.386;20.434;2022-08-19T02:26:17;18.55;;;8.43;;
63567;SDS011;49715;42.386;20.434;2022-08-19T02:28:45;25.13;;;8.45;;
63567;SDS011;49715;42.386;20.434;2022-08-19T02:31:12;22.42;;;10.68;;
63567;SDS011;49715;42.386;20.434;2022-08-19T02:33:40;25.65;;;14.38;;
63567;SDS011;49715;42.386;20.434;2022-08-19T02:36:08;37.75;;;19.52;;
63567;SDS011;49715;42.386;20.434;2022-08-19T02:38:36;24.08;;;13.25;;
63567;SDS011;49715;42.386;20.434;2022-08-19T02:43:37;21.20;;;11.98;;
63567;SDS011;49715;42.386;20.434;2022-08-19T02:46:13;20.95;;;10.70;;
63567;SDS011;49715;42.386;20.434;2022-08-19T02:48:47;24.63;;;13.10;;
63567;SDS011;49715;42.386;20.434;2022-08-19T02:51:21;25.58;;;15.27;;
63567;SDS011;49715;42.386;20.434;2022-08-19T02:53:50;16.80;;;13.30;;
63567;SDS011;49715;42.386;20.434;2022-08-19T03:01:10;18.45;;;10.55;;
63567;SDS011;49715;42.386;20.434;2022-08-19T03:03:38;19.15;;;9.77;;
63567;SDS011;49715;42.386;20.434;2022-08-19T03:06:10;31.30;;;8.82;;
63567;SDS011;49715;42.386;20.434;2022-08-19T03:08:47;23.15;;;8.18;;
63567;SDS011;49715;42.386;20.434;2022-08-19T03:11:23;20.90;;;8.48;;
63567;SDS011;49715;42.386;20.434;2022-08-19T03:13:53;21.35;;;8.65;;
63567;SDS011;49715;42.386;20.434;2022-08-19T03:18:51;17.85;;;8.05;;
63567;SDS011;49715;42.386;20.434;2022-08-19T03:21:23;15.57;;;8.57;;
63567;SDS011;49715;42.386;20.434;2022-08-19T03:23:59;16.60;;;8.13;;
63567;SDS011;49715;42.386;20.434;2022-08-19T03:26:30;16.60;;;7.93;;
63567;SDS011;49715;42.386;20.434;2022-08-19T03:28:56;19.20;;;9.07;;
63567;SDS011;49715;42.386;20.434;2022-08-19T03:31:26;18.23;;;8.35;;
63567;SDS011;49715;42.386;20.434;2022-08-19T03:33:53;18.90;;;8.55;;
63567;SDS011;49715;42.386;20.434;2022-08-19T03:36:23;17.58;;;8.95;;
63567;SDS011;49715;42.386;20.434;2022-08-19T03:38:53;16.63;;;9.38;;
63567;SDS011;49715;42.386;20.434;2022-08-19T03:41:29;17.23;;;7.93;;
63567;SDS011;49715;42.386;20.434;2022-08-19T03:43:59;13.52;;;7.43;;
63567;SDS011;49715;42.386;20.434;2022-08-19T03:46:27;22.10;;;7.53;;
63567;SDS011;49715;42.386;20.434;2022-08-19T03:48:56;16.60;;;8.05;;
63567;SDS011;49715;42.386;20.434;2022-08-19T03:51:25;18.75;;;8.55;;
63567;SDS011;49715;42.386;20.434;2022-08-19T03:53:56;17.25;;;9.73;;
63567;SDS011;49715;42.386;20.434;2022-08-19T03:56:24;15.73;;;9.02;;
63567;SDS011;49715;42.386;20.434;2022-08-19T03:58:57;16.02;;;8.70;;
63567;SDS011;49715;42.386;20.434;2022-08-19T04:01:26;28.50;;;8.52;;
63567;SDS011;49715;42.386;20.434;2022-08-19T04:03:55;15.85;;;8.65;;
63567;SDS011;49715;42.386;20.434;2022-08-19T04:06:24;16.50;;;8.18;;
63567;SDS011;49715;42.386;20.434;2022-08-19T04:08:55;14.82;;;8.35;;
63567;SDS011;49715;42.386;20.434;2022-08-19T04:11:25;14.27;;;7.55;;
63567;SDS011;49715;42.386;20.434;2022-08-19T04:13:54;22.33;;;9.55;;
63567;SDS011;49715;42.386;20.434;2022-08-19T04:16:23;21.75;;;10.85;;
63567;SDS011;49715;42.386;20.434;2022-08-19T04:18:56;20.92;;;10.82;;
63567;SDS011;49715;42.386;20.434;2022-08-19T04:21:26;18.20;;;9.93;;
63567;SDS011;49715;42.386;20.434;2022-08-19T04:23:54;24.33;;;9.77;;
63567;SDS011;49715;42.386;20.434;2022-08-19T04:26:26;20.98;;;10.75;;
63567;SDS011;49715;42.386;20.434;2022-08-19T04:28:58;21.25;;;10.32;;
63567;SDS011;49715;42.386;20.434;2022-08-19T04:31:27;16.38;;;9.57;;
63567;SDS011;49715;42.386;20.434;2022-08-19T04:33:57;21.20;;;10.63;;
63567;SDS011;49715;42.386;20.434;2022-08-19T04:36:34;23.83;;;10.43;;
63567;SDS011;49715;42.386;20.434;2022-08-19T04:39:05;18.77;;;10.82;;
63567;SDS011;49715;42.386;20.434;2022-08-19T04:41:34;28.35;;;12.15;;
63567;SDS011;49715;42.386;20.434;2022-08-19T04:44:19;15.55;;;8.65;;
63567;SDS011;49715;42.386;20.434;2022-08-19T04:49:14;20.45;;;7.72;;
63567;SDS011;49715;42.386;20.434;2022-08-19T04:51:43;15.35;;;7.60;;
63567;SDS011;49715;42.386;20.434;2022-08-19T04:54:13;15.48;;;8.20;;
63567;SDS011;49715;42.386;20.434;2022-08-19T04:56:40;15.23;;;8.25;;
63567;SDS011;49715;42.386;20.434;2022-08-19T04:59:08;18.35;;;8.32;;
63567;SDS011;49715;42.386;20.434;2022-08-19T05:01:34;19.63;;;9.57;;
63567;SDS011;49715;42.386;20.434;2022-08-19T05:04:03;16.92;;;7.78;;
63567;SDS011;49715;42.386;20.434;2022-08-19T05:06:31;15.70;;;7.45;;
63567;SDS011;49715;42.386;20.434;2022-08-19T05:09:00;18.55;;;8.18;;
63567;SDS011;49715;42.386;20.434;2022-08-19T05:11:28;18.85;;;8.20;;
63567;SDS011;49715;42.386;20.434;2022-08-19T05:14:00;19.63;;;7.78;;
63567;SDS011;49715;42.386;20.434;2022-08-19T05:18:55;33.05;;;10.35;;
63567;SDS011;49715;42.386;20.434;2022-08-19T05:21:40;32.17;;;10.30;;
63567;SDS011;49715;42.386;20.434;2022-08-19T05:29:23;24.73;;;12.05;;
63567;SDS011;49715;42.386;20.434;2022-08-19T05:31:51;32.28;;;12.13;;
63567;SDS011;49715;42.386;20.434;2022-08-19T05:34:18;26.33;;;11.43;;
63567;SDS011;49715;42.386;20.434;2022-08-19T05:36:48;30.10;;;11.73;;
63567;SDS011;49715;42.386;20.434;2022-08-19T05:39:17;27.55;;;12.55;;
63567;SDS011;49715;42.386;20.434;2022-08-19T05:41:46;36.75;;;12.50;;
63567;SDS011;49715;42.386;20.434;2022-08-19T05:44:16;36.92;;;12.80;;
63567;SDS011;49715;42.386;20.434;2022-08-19T05:46:44;32.28;;;13.70;;
63567;SDS011;49715;42.386;20.434;2022-08-19T05:49:13;44.65;;;15.13;;
63567;SDS011;49715;42.386;20.434;2022-08-19T05:51:41;39.03;;;14.73;;
63567;SDS011;49715;42.386;20.434;2022-08-19T05:54:09;41.72;;;14.98;;
63567;SDS011;49715;42.386;20.434;2022-08-19T05:56:37;39.80;;;13.60;;
63567;SDS011;49715;42.386;20.434;2022-08-19T06:01:34;38.72;;;13.65;;
63567;SDS011;49715;42.386;20.434;2022-08-19T06:04:02;36.28;;;14.02;;
63567;SDS011;49715;42.386;20.434;2022-08-19T06:06:29;28.30;;;13.40;;
63567;SDS011;49715;42.386;20.434;2022-08-19T06:08:56;34.72;;;13.63;;
63567;SDS011;49715;42.386;20.434;2022-08-19T06:13:53;28.42;;;12.25;;
63567;SDS011;49715;42.386;20.434;2022-08-19T06:16:21;32.80;;;12.13;;
63567;SDS011;49715;42.386;20.434;2022-08-19T06:18:51;24.13;;;10.85;;
63567;SDS011;49715;42.386;20.434;2022-08-19T06:21:20;23.17;;;10.23;;
63567;SDS011;49715;42.386;20.434;2022-08-19T06:23:48;22.27;;;11.32;;
63567;SDS011;49715;42.386;20.434;2022-08-19T06:26:17;28.80;;;10.57;;
63567;SDS011;49715;42.386;20.434;2022-08-19T06:28:45;22.52;;;9.85;;
63567;SDS011;49715;42.386;20.434;2022-08-19T06:31:16;25.67;;;11.63;;
63567;SDS011;49715;42.386;20.434;2022-08-19T06:33:46;37.30;;;12.73;;
63567;SDS011;49715;42.386;20.434;2022-08-19T06:36:21;26.58;;;12.63;;
63567;SDS011;49715;42.386;20.434;2022-08-19T06:38:55;26.30;;;12.00;;
63567;SDS011;49715;42.386;20.434;2022-08-19T06:41:24;23.15;;;11.63;;
63567;SDS011;49715;42.386;20.434;2022-08-19T06:43:51;26.10;;;11.70;;
63567;SDS011;49715;42.386;20.434;2022-08-19T06:46:19;27.85;;;11.82;;
63567;SDS011;49715;42.386;20.434;2022-08-19T06:48:47;30.67;;;12.00;;
63567;SDS011;49715;42.386;20.434;2022-08-19T06:51:15;31.23;;;11.27;;
63567;SDS011;49715;42.386;20.434;2022-08-19T06:53:48;26.00;;;11.60;;
63567;SDS011;49715;42.386;20.434;2022-08-19T06:56:17;29.17;;;11.65;;
63567;SDS011;49715;42.386;20.434;2022-08-19T06:58:45;27.17;;;11.10;;
63567;SDS011;49715;42.386;20.434;2022-08-19T07:01:12;27.83;;;11.40;;
63567;SDS011;49715;42.386;20.434;2022-08-19T07:03:39;23.25;;;11.20;;
63567;SDS011;49715;42.386;20.434;2022-08-19T07:06:06;26.65;;;11.93;;
63567;SDS011;49715;42.386;20.434;2022-08-19T07:08:36;23.27;;;10.88;;
63567;SDS011;49715;42.386;20.434;2022-08-19T07:11:07;23.85;;;10.63;;
63567;SDS011;49715;42.386;20.434;2022-08-19T07:13:37;21.08;;;10.15;;
63567;SDS011;49715;42.386;20.434;2022-08-19T07:16:04;24.65;;;10.73;;
63567;SDS011;49715;42.386;20.434;2022-08-19T07:18:35;19.00;;;10.45;;
63567;SDS011;49715;42.386;20.434;2022-08-19T07:21:05;18.40;;;9.90;;
63567;SDS011;49715;42.386;20.434;2022-08-19T07:23:37;22.00;;;10.15;;
63567;SDS011;49715;42.386;20.434;2022-08-19T07:26:05;24.13;;;10.02;;
63567;SDS011;49715;42.386;20.434;2022-08-19T07:28:43;19.88;;;10.13;;
63567;SDS011;49715;42.386;20.434;2022-08-19T07:31:11;23.92;;;10.25;;
63567;SDS011;49715;42.386;20.434;2022-08-19T07:33:39;16.67;;;9.88;;
63567;SDS011;49715;42.386;20.434;2022-08-19T07:36:09;21.92;;;10.63;;
63567;SDS011;49715;42.386;20.434;2022-08-19T07:38:37;18.08;;;10.50;;
63567;SDS011;49715;42.386;20.434;2022-08-19T07:41:05;20.70;;;10.05;;
63567;SDS011;49715;42.386;20.434;2022-08-19T07:43:32;26.98;;;9.95;;
63567;SDS011;49715;42.386;20.434;2022-08-19T07:48:26;18.92;;;8.35;;
63567;SDS011;49715;42.386;20.434;2022-08-19T07:50:54;22.65;;;9.27;;
63567;SDS011;49715;42.386;20.434;2022-08-19T07:53:24;17.52;;;10.10;;
63567;SDS011;49715;42.386;20.434;2022-08-19T07:55:51;16.90;;;9.90;;
63567;SDS011;49715;42.386;20.434;2022-08-19T07:58:18;19.52;;;8.63;;
63567;SDS011;49715;42.386;20.434;2022-08-19T08:00:47;20.30;;;9.05;;
63567;SDS011;49715;42.386;20.434;2022-08-19T08:03:16;17.65;;;8.95;;
63567;SDS011;49715;42.386;20.434;2022-08-19T08:05:45;18.13;;;8.43;;
63567;SDS011;49715;42.386;20.434;2022-08-19T08:08:31;15.98;;;8.63;;
63567;SDS011;49715;42.386;20.434;2022-08-19T08:11:17;15.75;;;7.88;;
63567;SDS011;49715;42.386;20.434;2022-08-19T08:13:46;22.65;;;8.02;;
63567;SDS011;49715;42.386;20.434;2022-08-19T08:16:15;17.65;;;7.68;;
63567;SDS011;49715;42.386;20.434;2022-08-19T08:18:41;12.60;;;6.80;;
63567;SDS011;49715;42.386;20.434;2022-08-19T10:24:26;12.97;;;5.90;;
63567;SDS011;49715;42.386;20.434;2022-08-19T10:26:54;11.02;;;5.65;;
63567;SDS011;49715;42.386;20.434;2022-08-19T10:29:21;13.88;;;5.90;;
63567;SDS011;49715;42.386;20.434;2022-08-19T10:31:48;14.63;;;5.38;;
63567;SDS011;49715;42.386;20.434;2022-08-19T10:34:14;9.48;;;5.45;;
63567;SDS011;49715;42.386;20.434;2022-08-19T10:36:40;14.27;;;5.20;;
63567;SDS011;49715;42.386;20.434;2022-08-19T10:39:08;8.68;;;5.00;;
63567;SDS011;49715;42.386;20.434;2022-08-19T10:41:36;15.90;;;5.25;;
63567;SDS011;49715;42.386;20.434;2022-08-19T10:44:08;12.95;;;5.07;;
63567;SDS011;49715;42.386;20.434;2022-08-19T10:46:37;11.57;;;4.82;;
63567;SDS011;49715;42.386;20.434;2022-08-19T10:49:08;9.57;;;5.30;;
63567;SDS011;49715;42.386;20.434;2022-08-19T10:51:37;10.43;;;5.22;;
63567;SDS011;49715;42.386;20.434;2022-08-19T10:54:29;14.02;;;5.53;;
63567;SDS011;49715;42.386;20.434;2022-08-19T10:57:15;11.52;;;4.97;;
63567;SDS011;49715;42.386;20.434;2022-08-19T10:59:41;12.32;;;5.03;;
63567;SDS011;49715;42.386;20.434;2022-08-19T11:02:08;13.68;;;4.68;;
63567;SDS011;49715;42.386;20.434;2022-08-19T11:04:39;12.65;;;5.15;;
63567;SDS011;49715;42.386;20.434;2022-08-19T11:07:06;12.73;;;5.40;;
63567;SDS011;49715;42.386;20.434;2022-08-19T11:09:42;15.05;;;5.05;;
63567;SDS011;49715;42.386;20.434;2022-08-19T11:12:09;12.60;;;4.93;;
63567;SDS011;49715;42.386;20.434;2022-08-19T11:14:36;13.45;;;4.45;;
63567;SDS011;49715;42.386;20.434;2022-08-19T11:17:04;10.23;;;4.63;;
63567;SDS011;49715;42.386;20.434;2022-08-19T11:19:32;10.98;;;4.60;;
63567;SDS011;49715;42.386;20.434;2022-08-19T11:22:00;12.95;;;4.90;;
63567;SDS011;49715;42.386;20.434;2022-08-19T11:24:30;9.43;;;4.50;;
63567;SDS011;49715;42.386;20.434;2022-08-19T11:27:00;12.68;;;5.13;;
63567;SDS011;49715;42.386;20.434;2022-08-19T11:29:31;17.58;;;4.93;;
63567;SDS011;49715;42.386;20.434;2022-08-19T11:32:02;16.30;;;4.53;;
63567;SDS011;49715;42.386;20.434;2022-08-19T11:34:35;12.52;;;4.93;;
63567;SDS011;49715;42.386;20.434;2022-08-19T11:37:02;14.18;;;4.50;;
63567;SDS011;49715;42.386;20.434;2022-08-19T11:39:30;14.50;;;4.30;;
63567;SDS011;49715;42.386;20.434;2022-08-19T11:41:58;11.10;;;4.20;;
63567;SDS011;49715;42.386;20.434;2022-08-19T11:44:28;11.10;;;4.57;;
63567;SDS011;49715;42.386;20.434;2022-08-19T11:46:57;14.43;;;4.40;;
63567;SDS011;49715;42.386;20.434;2022-08-19T11:49:25;13.50;;;4.40;;
63567;SDS011;49715;42.386;20.434;2022-08-19T11:51:52;10.88;;;4.57;;
63567;SDS011;49715;42.386;20.434;2022-08-19T11:54:19;11.60;;;4.32;;
63567;SDS011;49715;42.386;20.434;2022-08-19T11:56:45;12.45;;;5.00;;
63567;SDS011;49715;42.386;20.434;2022-08-19T11:59:13;13.05;;;4.75;;
63567;SDS011;49715;42.386;20.434;2022-08-19T12:01:40;11.88;;;4.70;;
63567;SDS011;49715;42.386;20.434;2022-08-19T12:04:08;9.98;;;4.57;;
63567;SDS011;49715;42.386;20.434;2022-08-19T12:06:37;10.68;;;4.25;;
63567;SDS011;49715;42.386;20.434;2022-08-19T12:09:05;11.48;;;4.38;;
63567;SDS011;49715;42.386;20.434;2022-08-19T12:11:35;12.25;;;4.88;;
63567;SDS011;49715;42.386;20.434;2022-08-19T12:14:02;12.93;;;4.70;;
63567;SDS011;49715;42.386;20.434;2022-08-19T12:16:30;17.73;;;5.32;;
63567;SDS011;49715;42.386;20.434;2022-08-19T12:18:58;13.60;;;4.80;;
63567;SDS011;49715;42.386;20.434;2022-08-19T12:21:30;14.38;;;5.05;;
63567;SDS011;49715;42.386;20.434;2022-08-19T12:23:58;18.48;;;4.70;;
63567;SDS011;49715;42.386;20.434;2022-08-19T12:26:27;16.23;;;5.25;;
63567;SDS011;49715;42.386;20.434;2022-08-19T12:28:54;11.63;;;4.70;;
63567;SDS011;49715;42.386;20.434;2022-08-19T12:31:21;14.65;;;5.00;;
63567;SDS011;49715;42.386;20.434;2022-08-19T12:33:47;11.55;;;5.03;;
63567;SDS011;49715;42.386;20.434;2022-08-19T12:36:15;12.60;;;4.90;;
63567;SDS011;49715;42.386;20.434;2022-08-19T12:38:43;13.82;;;5.05;;
63567;SDS011;49715;42.386;20.434;2022-08-19T12:41:11;17.33;;;5.10;;
63567;SDS011;49715;42.386;20.434;2022-08-19T12:43:45;19.23;;;5.13;;
63567;SDS011;49715;42.386;20.434;2022-08-19T12:46:15;16.23;;;5.13;;
63567;SDS011;49715;42.386;20.434;2022-08-19T12:48:43;15.02;;;5.15;;
63567;SDS011;49715;42.386;20.434;2022-08-19T12:51:12;16.85;;;5.00;;
63567;SDS011;49715;42.386;20.434;2022-08-19T12:53:42;17.02;;;4.82;;
63567;SDS011;49715;42.386;20.434;2022-08-19T12:56:10;15.10;;;4.80;;
63567;SDS011;49715;42.386;20.434;2022-08-19T12:58:38;15.10;;;4.85;;
63567;SDS011;49715;42.386;20.434;2022-08-19T13:01:09;16.13;;;5.20;;
63567;SDS011;49715;42.386;20.434;2022-08-19T13:03:42;13.15;;;4.85;;
63567;SDS011;49715;42.386;20.434;2022-08-19T13:06:10;12.93;;;4.63;;
63567;SDS011;49715;42.386;20.434;2022-08-19T13:08:37;18.33;;;5.18;;
63567;SDS011;49715;42.386;20.434;2022-08-19T13:11:11;15.73;;;4.63;;
63567;SDS011;49715;42.386;20.434;2022-08-19T13:13:40;16.73;;;4.50;;
63567;SDS011;49715;42.386;20.434;2022-08-19T13:16:09;16.25;;;4.90;;
63567;SDS011;49715;42.386;20.434;2022-08-19T13:18:37;21.13;;;6.03;;
63567;SDS011;49715;42.386;20.434;2022-08-19T13:21:06;18.60;;;5.00;;
63567;SDS011;49715;42.386;20.434;2022-08-19T13:23:34;20.23;;;5.47;;
63567;SDS011;49715;42.386;20.434;2022-08-19T13:26:03;16.83;;;4.72;;
63567;SDS011;49715;42.386;20.434;2022-08-19T13:28:32;14.82;;;4.70;;
63567;SDS011;49715;42.386;20.434;2022-08-19T13:31:21;18.80;;;5.03;;
63567;SDS011;49715;42.386;20.434;2022-08-19T13:34:09;16.60;;;4.55;;
63567;SDS011;49715;42.386;20.434;2022-08-19T13:36:36;16.15;;;4.50;;
63567;SDS011;49715;42.386;20.434;2022-08-19T13:39:04;16.42;;;4.40;;
63567;SDS011;49715;42.386;20.434;2022-08-19T13:41:35;20.92;;;4.63;;
63567;SDS011;49715;42.386;20.434;2022-08-19T13:44:03;17.90;;;4.78;;
63567;SDS011;49715;42.386;20.434;2022-08-19T13:46:31;19.17;;;5.05;;
63567;SDS011;49715;42.386;20.434;2022-08-19T13:48:58;13.10;;;4.82;;
63567;SDS011;49715;42.386;20.434;2022-08-19T13:51:25;17.10;;;4.90;;
63567;SDS011;49715;42.386;20.434;2022-08-19T13:53:52;15.30;;;4.63;;
63567;SDS011;49715;42.386;20.434;2022-08-19T13:56:19;16.90;;;5.10;;
63567;SDS011;49715;42.386;20.434;2022-08-19T13:58:45;23.70;;;4.97;;
63567;SDS011;49715;42.386;20.434;2022-08-19T14:01:12;13.23;;;4.65;;
63567;SDS011;49715;42.386;20.434;2022-08-19T14:03:45;16.63;;;4.57;;
63567;SDS011;49715;42.386;20.434;2022-08-19T14:06:12;17.88;;;4.93;;
63567;SDS011;49715;42.386;20.434;2022-08-19T14:08:38;16.52;;;4.30;;
63567;SDS011;49715;42.386;20.434;2022-08-19T14:11:07;15.18;;;4.53;;
63567;SDS011;49715;42.386;20.434;2022-08-19T14:13:34;22.58;;;5.00;;
63567;SDS011;49715;42.386;20.434;2022-08-19T14:16:01;18.20;;;4.30;;
63567;SDS011;49715;42.386;20.434;2022-08-19T14:18:34;19.42;;;4.70;;
63567;SDS011;49715;42.386;20.434;2022-08-19T14:21:01;20.33;;;4.90;;
63567;SDS011;49715;42.386;20.434;2022-08-19T14:23:28;16.65;;;4.50;;
63567;SDS011;49715;42.386;20.434;2022-08-19T14:26:02;17.17;;;4.93;;
63567;SDS011;49715;42.386;20.434;2022-08-19T14:28:30;21.73;;;5.22;;
63567;SDS011;49715;42.386;20.434;2022-08-19T14:30:57;19.05;;;4.65;;
63567;SDS011;49715;42.386;20.434;2022-08-19T14:33:23;20.80;;;4.65;;
63567;SDS011;49715;42.386;20.434;2022-08-19T14:35:50;20.67;;;4.85;;
63567;SDS011;49715;42.386;20.434;2022-08-19T14:38:18;24.95;;;4.75;;
63567;SDS011;49715;42.386;20.434;2022-08-19T14:40:44;17.33;;;4.75;;
63567;SDS011;49715;42.386;20.434;2022-08-19T14:43:11;14.60;;;4.18;;
63567;SDS011;49715;42.386;20.434;2022-08-19T14:45:39;14.48;;;4.75;;
63567;SDS011;49715;42.386;20.434;2022-08-19T14:48:06;18.92;;;4.57;;
63567;SDS011;49715;42.386;20.434;2022-08-19T14:50:34;15.38;;;4.45;;
63567;SDS011;49715;42.386;20.434;2022-08-19T14:53:04;23.52;;;4.80;;
63567;SDS011;49715;42.386;20.434;2022-08-19T14:55:33;17.70;;;4.60;;
63567;SDS011;49715;42.386;20.434;2022-08-19T14:58:01;18.30;;;4.90;;
63567;SDS011;49715;42.386;20.434;2022-08-19T15:00:28;16.40;;;4.65;;
63567;SDS011;49715;42.386;20.434;2022-08-19T15:02:56;24.65;;;5.55;;
63567;SDS011;49715;42.386;20.434;2022-08-19T15:05:23;24.33;;;5.28;;
63567;SDS011;49715;42.386;20.434;2022-08-19T15:07:51;28.85;;;5.35;;
63567;SDS011;49715;42.386;20.434;2022-08-19T15:10:17;28.38;;;5.60;;
63567;SDS011;49715;42.386;20.434;2022-08-19T15:12:44;25.42;;;5.32;;
63567;SDS011;49715;42.386;20.434;2022-08-19T15:15:12;22.60;;;5.85;;
63567;SDS011;49715;42.386;20.434;2022-08-19T15:17:40;27.15;;;5.18;;
63567;SDS011;49715;42.386;20.434;2022-08-19T15:20:08;23.83;;;5.70;;
63567;SDS011;49715;42.386;20.434;2022-08-19T15:22:36;23.92;;;5.15;;
63567;SDS011;49715;42.386;20.434;2022-08-19T15:25:03;25.13;;;5.20;;
63567;SDS011;49715;42.386;20.434;2022-08-19T15:27:31;22.58;;;5.20;;
63567;SDS011;49715;42.386;20.434;2022-08-19T15:29:58;23.50;;;5.80;;
63567;SDS011;49715;42.386;20.434;2022-08-19T15:32:24;22.38;;;5.40;;
63567;SDS011;49715;42.386;20.434;2022-08-19T15:34:53;26.00;;;5.63;;
63567;SDS011;49715;42.386;20.434;2022-08-19T15:37:20;26.60;;;5.88;;
63567;SDS011;49715;42.386;20.434;2022-08-19T15:39:50;22.08;;;5.07;;
63567;SDS011;49715;42.386;20.434;2022-08-19T15:42:17;33.65;;;5.55;;
63567;SDS011;49715;42.386;20.434;2022-08-19T15:44:46;36.42;;;6.00;;
63567;SDS011;49715;42.386;20.434;2022-08-19T15:47:13;26.60;;;6.32;;
63567;SDS011;49715;42.386;20.434;2022-08-19T15:49:40;32.63;;;6.20;;
63567;SDS011;49715;42.386;20.434;2022-08-19T15:52:07;20.83;;;5.72;;
63567;SDS011;49715;42.386;20.434;2022-08-19T15:54:34;27.92;;;6.30;;
63567;SDS011;49715;42.386;20.434;2022-08-19T15:57:00;28.95;;;6.50;;
63567;SDS011;49715;42.386;20.434;2022-08-19T15:59:47;33.38;;;6.78;;
63567;SDS011;49715;42.386;20.434;2022-08-19T16:02:37;31.13;;;6.00;;
63567;SDS011;49715;42.386;20.434;2022-08-19T16:05:23;45.97;;;6.78;;
63567;SDS011;49715;42.386;20.434;2022-08-19T16:08:10;34.13;;;5.78;;
63567;SDS011;49715;42.386;20.434;2022-08-19T16:10:37;34.13;;;5.75;;
63567;SDS011;49715;42.386;20.434;2022-08-19T16:13:04;23.13;;;5.60;;
63567;SDS011;49715;42.386;20.434;2022-08-19T16:15:31;28.15;;;5.55;;
63567;SDS011;49715;42.386;20.434;2022-08-19T16:17:59;24.05;;;5.85;;
63567;SDS011;49715;42.386;20.434;2022-08-19T16:20:27;28.40;;;5.68;;
63567;SDS011;49715;42.386;20.434;2022-08-19T16:22:56;28.60;;;5.40;;
63567;SDS011;49715;42.386;20.434;2022-08-19T16:25:24;24.23;;;6.15;;
63567;SDS011;49715;42.386;20.434;2022-08-19T16:27:53;34.63;;;6.32;;
63567;SDS011;49715;42.386;20.434;2022-08-19T16:30:21;28.50;;;6.03;;
63567;SDS011;49715;42.386;20.434;2022-08-19T16:32:47;25.08;;;5.88;;
63567;SDS011;49715;42.386;20.434;2022-08-19T16:35:14;38.22;;;5.47;;
63567;SDS011;49715;42.386;20.434;2022-08-19T16:37:41;25.27;;;5.78;;
63567;SDS011;49715;42.386;20.434;2022-08-19T16:40:08;23.10;;;5.57;;
63567;SDS011;49715;42.386;20.434;2022-08-19T16:42:35;29.20;;;5.53;;
63567;SDS011;49715;42.386;20.434;2022-08-19T16:45:01;24.88;;;5.72;;
63567;SDS011;49715;42.386;20.434;2022-08-19T16:47:29;29.77;;;5.82;;
63567;SDS011;49715;42.386;20.434;2022-08-19T16:49:55;31.92;;;5.43;;
63567;SDS011;49715;42.386;20.434;2022-08-19T16:52:23;29.80;;;5.63;;
63567;SDS011;49715;42.386;20.434;2022-08-19T16:54:52;20.02;;;5.03;;
63567;SDS011;49715;42.386;20.434;2022-08-19T16:57:20;22.77;;;5.28;;
63567;SDS011;49715;42.386;20.434;2022-08-19T16:59:48;21.90;;;5.53;;
63567;SDS011;49715;42.386;20.434;2022-08-19T17:02:17;30.95;;;5.65;;
63567;SDS011;49715;42.386;20.434;2022-08-19T17:04:47;35.42;;;5.78;;
63567;SDS011;49715;42.386;20.434;2022-08-19T17:07:16;31.00;;;5.43;;
63567;SDS011;49715;42.386;20.434;2022-08-19T17:09:43;21.48;;;5.57;;